Time;durP1;ratioP1;P1;durP2;ratioP2;P2;SDS_P1;SDS_P2;PMS_P1;PMS_P2;Temp;Humidity;BMP_temperature;BMP_pressure;BME280_temperature;BME280_humidity;BME280_pressure;Samples;Min_cycle;Max_cycle;Signal;HPM_P1;HPM_P2
2023/05/07 00:01:06;;;;;;;13.88;11.57;;;14.10;99.90;;;;;;5031756;28;20362;-53
2023/05/07 00:03:32;;;;;;;14.40;10.57;;;14.00;99.90;;;;;;5030299;28;20128;-56
2023/05/07 00:05:58;;;;;;;18.13;10.63;;;14.10;99.90;;;;;;5030466;28;20088;-57
2023/05/07 00:08:24;;;;;;;12.73;11.43;;;14.10;99.90;;;;;;5029925;28;20491;-57
2023/05/07 00:10:49;;;;;;;12.27;11.00;;;14.00;99.90;;;;;;5030847;28;20056;-55
2023/05/07 00:13:15;;;;;;;13.13;9.48;;;14.00;99.90;;;;;;5030637;28;20117;-53
2023/05/07 00:15:41;;;;;;;13.35;10.77;;;14.00;99.90;;;;;;5031113;28;20185;-56
2023/05/07 00:18:06;;;;;;;12.77;10.60;;;14.00;99.90;;;;;;5042711;28;20391;-57
2023/05/07 00:20:32;;;;;;;11.55;10.00;;;14.00;99.90;;;;;;5036668;28;20497;-58
2023/05/07 00:22:57;;;;;;;14.02;11.13;;;14.00;99.90;;;;;;5043371;28;20120;-57
2023/05/07 00:25:23;;;;;;;15.98;12.40;;;14.00;99.90;;;;;;5030283;28;20118;-57
2023/05/07 00:27:49;;;;;;;13.93;11.15;;;14.00;99.90;;;;;;5034431;28;20091;-56
2023/05/07 00:30:14;;;;;;;22.63;14.15;;;14.00;99.90;;;;;;5030082;28;20033;-54
2023/05/07 00:32:40;;;;;;;13.32;11.25;;;13.90;99.90;;;;;;5044431;28;20033;-56
2023/05/07 00:35:06;;;;;;;17.52;12.65;;;13.90;99.90;;;;;;5042034;28;20044;-57
2023/05/07 00:37:32;;;;;;;17.25;14.30;;;13.90;99.90;;;;;;5030064;28;20099;-57
2023/05/07 00:39:58;;;;;;;17.80;14.57;;;13.90;99.90;;;;;;5039676;28;20458;-55
2023/05/07 00:42:24;;;;;;;18.33;14.90;;;13.80;99.90;;;;;;5040783;28;20493;-56
2023/05/07 00:44:50;;;;;;;19.90;17.27;;;13.90;99.90;;;;;;5045126;28;20072;-58
2023/05/07 00:47:16;;;;;;;22.15;15.68;;;13.80;99.90;;;;;;5036868;28;20098;-57
2023/05/07 00:49:43;;;;;;;21.98;17.05;;;13.80;99.90;;;;;;5030657;28;20046;-57
2023/05/07 00:52:15;;;;;;;22.02;17.15;;;13.80;99.90;;;;;;5029110;28;20087;-56
2023/05/07 00:54:41;;;;;;;21.75;17.35;;;13.70;99.90;;;;;;5029570;28;20037;-57
2023/05/07 00:57:08;;;;;;;;;;;13.70;99.90;;;;;;5030359;28;20041;-58
2023/05/07 00:59:34;;;;;;;21.48;17.52;;;13.60;99.90;;;;;;5028078;28;19917;-57
2023/05/07 01:02:00;;;;;;;20.52;17.73;;;13.60;99.90;;;;;;5021489;28;20100;-57
2023/05/07 01:04:26;;;;;;;21.85;18.33;;;13.60;99.90;;;;;;5049531;28;20072;-58
2023/05/07 01:06:54;;;;;;;;;;;13.50;99.90;;;;;;5033226;28;20401;-56
2023/05/07 01:09:20;;;;;;;;;;;13.50;99.90;;;;;;5042876;28;20386;-56
2023/05/07 01:11:47;;;;;;;19.08;17.08;;;13.40;99.90;;;;;;5029660;28;19961;-58
2023/05/07 01:14:13;;;;;;;25.98;19.50;;;13.40;99.90;;;;;;5029588;28;20710;-58
2023/05/07 01:16:40;;;;;;;21.10;17.50;;;13.30;99.90;;;;;;5030293;28;20045;-58
2023/05/07 01:19:07;;;;;;;23.75;18.17;;;13.30;99.90;;;;;;5047304;28;20045;-57
2023/05/07 01:21:34;;;;;;;20.85;17.67;;;13.30;99.90;;;;;;5029511;28;20045;-57
2023/05/07 01:24:00;;;;;;;23.10;18.52;;;13.20;99.90;;;;;;5028388;28;20048;-58
2023/05/07 01:26:26;;;;;;;20.38;18.25;;;13.10;99.90;;;;;;5029622;28;20045;-56
2023/05/07 01:28:52;;;;;;;21.20;18.80;;;13.10;99.90;;;;;;5029815;28;20041;-56
2023/05/07 01:31:18;;;;;;;25.00;19.67;;;13.00;99.90;;;;;;5029982;28;20314;-57
2023/05/07 01:33:45;;;;;;;21.27;19.05;;;13.00;99.90;;;;;;5043030;28;20068;-55
2023/05/07 01:36:12;;;;;;;25.15;20.05;;;12.90;99.90;;;;;;5029156;28;20046;-57
2023/05/07 01:38:40;;;;;;;25.05;21.35;;;12.90;99.90;;;;;;5042679;28;20041;-58
2023/05/07 01:41:07;;;;;;;24.77;20.20;;;12.90;99.90;;;;;;5029745;28;20049;-56
2023/05/07 01:43:33;;;;;;;25.92;20.15;;;12.80;99.90;;;;;;5041282;28;20057;-57
2023/05/07 01:46:01;;;;;;;25.98;20.45;;;12.80;99.90;;;;;;5043150;28;20617;-58
2023/05/07 01:48:27;;;;;;;22.52;19.80;;;12.70;99.90;;;;;;5029580;28;20045;-55
2023/05/07 01:50:53;;;;;;;25.58;20.08;;;12.70;99.90;;;;;;5029636;28;20048;-56
2023/05/07 01:53:18;;;;;;;22.73;20.02;;;12.70;99.90;;;;;;5029905;28;20418;-57
2023/05/07 01:55:45;;;;;;;24.92;21.08;;;12.60;99.90;;;;;;5029339;28;20037;-54
2023/05/07 01:58:10;;;;;;;;;;;12.60;99.90;;;;;;5028448;28;20045;-56
2023/05/07 02:00:36;;;;;;;27.75;22.48;;;12.50;99.90;;;;;;5029288;28;19924;-58
2023/05/07 02:03:01;;;;;;;29.60;22.50;;;12.60;99.90;;;;;;5029727;28;20041;-57
2023/05/07 02:05:27;;;;;;;27.00;22.13;;;12.50;99.90;;;;;;5029378;28;20065;-56
2023/05/07 02:07:53;;;;;;;29.02;22.85;;;12.50;99.90;;;;;;5028016;28;20128;-56
2023/05/07 02:10:18;;;;;;;26.67;21.83;;;12.40;99.90;;;;;;5029090;28;20033;-57
2023/05/07 02:12:44;;;;;;;29.42;24.13;;;12.40;99.90;;;;;;5030563;28;20045;-57
2023/05/07 02:15:10;;;;;;;31.25;24.50;;;12.40;99.90;;;;;;5049200;28;20064;-55
2023/05/07 02:17:38;;;;;;;26.65;22.42;;;12.30;99.90;;;;;;5028491;28;20041;-55
2023/05/07 02:20:04;;;;;;;31.25;25.02;;;12.30;99.90;;;;;;5028959;28;20125;-56
2023/05/07 02:22:30;;;;;;;33.35;24.55;;;12.30;99.90;;;;;;5043101;28;20116;-56
2023/05/07 02:24:55;;;;;;;31.42;24.50;;;12.30;99.90;;;;;;5047923;28;20119;-57
2023/05/07 02:27:21;;;;;;;32.20;23.92;;;12.30;99.90;;;;;;5032444;28;20049;-56
2023/05/07 02:29:46;;;;;;;33.95;25.67;;;12.20;99.90;;;;;;5042884;28;20040;-58
2023/05/07 02:32:12;;;;;;;36.55;26.15;;;12.20;99.90;;;;;;5035159;28;20449;-57
2023/05/07 02:34:38;;;;;;;35.60;26.38;;;12.20;99.90;;;;;;5040424;28;20063;-56
2023/05/07 02:37:03;;;;;;;36.17;26.17;;;12.10;99.90;;;;;;5035264;28;20510;-57
2023/05/07 02:39:29;;;;;;;34.00;26.25;;;12.10;99.90;;;;;;5037073;28;20068;-55
2023/05/07 02:41:54;;;;;;;35.35;27.25;;;12.10;99.90;;;;;;5039317;28;20048;-53
2023/05/07 02:44:20;;;;;;;36.25;28.63;;;12.10;99.90;;;;;;5040538;28;20086;-54
2023/05/07 02:46:46;;;;;;;43.03;29.10;;;12.00;99.90;;;;;;5041571;28;20454;-55
2023/05/07 02:49:11;;;;;;;40.70;30.25;;;12.00;99.90;;;;;;5036456;28;20283;-59
2023/05/07 02:51:37;;;;;;;36.55;28.45;;;12.00;99.90;;;;;;5044627;28;20068;-56
2023/05/07 02:54:02;;;;;;;39.90;30.08;;;11.90;99.90;;;;;;5039810;28;20037;-56
2023/05/07 02:56:28;;;;;;;40.40;30.27;;;12.00;99.90;;;;;;5031137;28;20499;-57
2023/05/07 02:58:54;;;;;;;42.72;32.28;;;11.90;99.90;;;;;;5031746;28;20041;-54
2023/05/07 03:01:20;;;;;;;40.83;30.95;;;11.90;99.90;;;;;;5040976;28;20487;-56
2023/05/07 03:03:46;;;;;;;41.38;31.42;;;11.80;99.90;;;;;;5045315;28;20087;-56
2023/05/07 03:06:11;;;;;;;43.73;31.00;;;11.80;99.90;;;;;;5032186;28;20045;-57
2023/05/07 03:08:37;;;;;;;39.23;31.67;;;11.80;99.90;;;;;;5031245;28;20264;-56
2023/05/07 03:11:03;;;;;;;46.20;33.93;;;11.80;99.90;;;;;;5032552;28;20367;-56
2023/05/07 03:13:28;;;;;;;43.53;32.75;;;11.80;99.90;;;;;;5036265;28;20789;-54
2023/05/07 03:15:54;;;;;;;46.75;35.50;;;11.80;99.90;;;;;;5034132;28;20045;-55
2023/05/07 03:18:19;;;;;;;49.85;34.65;;;11.70;99.90;;;;;;5030268;28;20052;-54
2023/05/07 03:20:45;;;;;;;43.05;34.22;;;11.70;99.90;;;;;;5045566;28;20076;-55
2023/05/07 03:23:11;;;;;;;41.15;33.47;;;11.70;99.90;;;;;;5035021;28;20057;-55
2023/05/07 03:25:37;;;;;;;45.60;34.20;;;11.70;99.90;;;;;;5036720;28;20042;-52
2023/05/07 03:28:02;;;;;;;48.45;35.40;;;11.70;99.90;;;;;;5029471;28;20287;-56
2023/05/07 03:30:28;;;;;;;54.03;36.13;;;11.70;99.90;;;;;;5041653;28;20112;-55
2023/05/07 03:32:53;;;;;;;43.90;35.17;;;11.70;99.90;;;;;;5038123;28;20041;-55
2023/05/07 03:35:19;;;;;;;45.55;33.47;;;11.60;99.90;;;;;;5035400;28;20281;-56
2023/05/07 03:37:45;;;;;;;49.67;36.33;;;11.70;99.90;;;;;;5029852;28;20073;-57
2023/05/07 03:40:12;;;;;;;46.17;35.35;;;11.70;99.90;;;;;;5031422;28;20051;-56
2023/05/07 03:42:37;;;;;;;46.65;34.45;;;11.70;99.90;;;;;;5031756;28;20041;-57
2023/05/07 03:45:03;;;;;;;48.90;34.45;;;11.70;99.90;;;;;;5035593;28;20517;-56
2023/05/07 03:47:29;;;;;;;44.25;32.40;;;11.70;99.90;;;;;;5041672;28;20048;-56
2023/05/07 03:49:55;;;;;;;48.40;35.97;;;11.70;99.90;;;;;;5031275;28;20163;-55
2023/05/07 03:52:25;;;;;;;46.53;34.90;;;11.70;99.90;;;;;;5030309;28;20038;-57
2023/05/07 03:54:52;;;;;;;46.70;33.38;;;11.60;99.90;;;;;;5032706;28;20037;-55
2023/05/07 03:57:17;;;;;;;;;;;11.70;99.90;;;;;;5030888;28;20049;-55
2023/05/07 03:59:43;;;;;;;44.60;33.40;;;11.60;99.90;;;;;;5042573;28;19923;-55
2023/05/07 04:02:08;;;;;;;52.90;35.57;;;11.60;99.90;;;;;;5031585;28;20036;-55
2023/05/07 04:04:34;;;;;;;45.15;35.47;;;11.60;99.90;;;;;;5030834;28;20056;-53
2023/05/07 04:07:00;;;;;;;43.55;33.17;;;11.60;99.90;;;;;;5045977;28;20065;-55
2023/05/07 04:09:26;;;;;;;48.75;35.70;;;11.60;99.90;;;;;;5010274;28;20531;-53
2023/05/07 04:11:51;;;;;;;46.15;33.72;;;11.60;99.90;;;;;;5042360;28;20240;-57
2023/05/07 04:14:17;;;;;;;45.08;34.35;;;11.60;99.90;;;;;;5031181;28;20041;-57
2023/05/07 04:16:42;;;;;;;43.80;33.10;;;11.60;99.90;;;;;;5038587;28;20037;-54
2023/05/07 04:19:08;;;;;;;44.13;34.17;;;11.60;99.90;;;;;;5029147;28;20045;-53
2023/05/07 04:21:33;;;;;;;43.23;33.97;;;11.60;99.90;;;;;;5042997;28;20823;-55
2023/05/07 04:23:59;;;;;;;45.40;32.83;;;11.60;99.90;;;;;;5035654;28;20288;-55
2023/05/07 04:26:25;;;;;;;45.20;32.58;;;11.50;99.90;;;;;;5037876;28;20033;-57
2023/05/07 04:28:50;;;;;;;39.57;31.20;;;11.60;99.90;;;;;;5036211;28;20502;-53
2023/05/07 04:31:16;;;;;;;43.03;31.87;;;11.60;99.90;;;;;;5038459;28;20311;-53
2023/05/07 04:33:41;;;;;;;46.95;32.88;;;11.60;99.90;;;;;;5039862;28;20091;-55
2023/05/07 04:36:07;;;;;;;42.05;30.88;;;11.60;99.90;;;;;;5032620;28;20049;-57
2023/05/07 04:38:33;;;;;;;36.80;30.55;;;11.60;99.90;;;;;;5029035;28;20487;-56
2023/05/07 04:41:04;;;;;;;42.40;31.13;;;11.60;99.90;;;;;;5033458;28;20086;-54
2023/05/07 04:43:29;;;;;;;39.88;31.45;;;11.60;99.90;;;;;;5030275;28;20041;-55
2023/05/07 04:45:55;;;;;;;38.13;30.03;;;11.60;99.90;;;;;;5030506;28;20041;-56
2023/05/07 04:48:20;;;;;;;35.75;28.33;;;11.60;99.90;;;;;;5028938;28;20068;-57
2023/05/07 04:50:50;;;;;;;41.28;29.58;;;11.60;99.90;;;;;;5030733;28;20087;-56
2023/05/07 04:53:17;;;;;;;39.38;28.77;;;11.60;99.90;;;;;;5029922;28;20510;-55
2023/05/07 04:55:42;;;;;;;37.47;29.90;;;11.60;99.90;;;;;;5030582;28;20060;-57
2023/05/07 04:58:08;;;;;;;38.53;29.83;;;11.60;99.90;;;;;;5038026;28;20037;-55
2023/05/07 05:00:34;;;;;;;34.20;27.70;;;11.60;99.90;;;;;;5030195;28;20541;-55
2023/05/07 05:02:59;;;;;;;33.08;26.92;;;11.70;99.90;;;;;;5047279;28;20581;-52
2023/05/07 05:05:25;;;;;;;34.95;27.85;;;11.60;99.90;;;;;;5029287;28;20075;-55
2023/05/07 05:07:51;;;;;;;37.15;29.38;;;11.70;99.90;;;;;;5028293;28;20063;-56
2023/05/07 05:10:17;;;;;;;36.45;27.73;;;11.70;99.90;;;;;;5029751;28;20037;-57
2023/05/07 05:12:43;;;;;;;36.33;28.73;;;11.70;99.90;;;;;;5044718;28;20037;-55
2023/05/07 05:15:10;;;;;;;35.88;29.08;;;11.70;99.90;;;;;;5049136;28;20067;-54
2023/05/07 05:17:36;;;;;;;38.15;29.35;;;11.70;99.90;;;;;;5046661;28;20406;-57
2023/05/07 05:20:02;;;;;;;36.15;28.70;;;11.70;99.90;;;;;;5033821;28;20277;-56
2023/05/07 05:22:29;;;;;;;37.35;29.05;;;11.80;99.90;;;;;;5029819;28;20037;-55
2023/05/07 05:24:55;;;;;;;34.83;28.00;;;11.80;99.90;;;;;;5029434;28;20088;-56
2023/05/07 05:27:20;;;;;;;34.97;27.77;;;11.80;99.90;;;;;;5038197;28;20036;-53
2023/05/07 05:29:46;;;;;;;34.70;28.60;;;11.80;99.90;;;;;;5036361;28;20280;-57
2023/05/07 05:32:11;;;;;;;43.50;30.48;;;11.90;99.90;;;;;;5038021;28;20462;-53
2023/05/07 05:34:37;;;;;;;38.58;28.45;;;11.90;99.90;;;;;;5044838;28;20060;-55
2023/05/07 05:37:03;;;;;;;35.85;29.58;;;11.90;99.90;;;;;;5046254;28;20071;-55
2023/05/07 05:39:28;;;;;;;34.55;28.80;;;11.90;99.90;;;;;;5040468;28;20041;-57
2023/05/07 05:41:54;;;;;;;36.30;28.27;;;11.90;99.90;;;;;;5034193;28;20037;-57
2023/05/07 05:44:19;;;;;;;39.00;28.33;;;11.90;99.90;;;;;;5042390;28;20038;-54
2023/05/07 05:46:45;;;;;;;37.75;28.25;;;11.90;99.90;;;;;;5032194;28;20044;-53
2023/05/07 05:49:11;;;;;;;34.30;27.48;;;12.00;99.90;;;;;;5042494;28;20033;-57
2023/05/07 05:51:36;;;;;;;35.95;28.45;;;12.00;99.90;;;;;;5029510;28;20087;-56
2023/05/07 05:54:02;;;;;;;38.90;31.33;;;12.00;99.90;;;;;;5029184;28;20050;-57
2023/05/07 05:56:28;;;;;;;36.70;28.92;;;12.00;99.90;;;;;;5028370;28;20522;-56
2023/05/07 05:58:53;;;;;;;38.60;30.42;;;12.10;99.90;;;;;;5029361;28;20191;-56
2023/05/07 06:01:19;;;;;;;40.28;30.15;;;12.10;99.90;;;;;;5028941;28;20558;-56
2023/05/07 06:03:45;;;;;;;39.67;29.27;;;12.10;99.90;;;;;;5028882;28;20041;-58
2023/05/07 06:06:10;;;;;;;37.47;29.40;;;12.10;99.90;;;;;;5028805;28;20045;-56
2023/05/07 06:08:36;;;;;;;39.25;32.35;;;12.10;99.90;;;;;;5028114;28;20030;-54
2023/05/07 06:11:02;;;;;;;38.78;29.90;;;12.10;99.90;;;;;;5028658;28;20084;-54
2023/05/07 06:13:28;;;;;;;41.22;30.63;;;12.10;99.90;;;;;;5029399;28;20045;-56
2023/05/07 06:15:54;;;;;;;40.25;30.63;;;12.10;99.90;;;;;;5031116;28;20038;-57
2023/05/07 06:18:19;;;;;;;42.72;31.10;;;12.20;99.90;;;;;;5031866;28;20108;-55
2023/05/07 06:20:45;;;;;;;38.55;32.10;;;12.20;99.90;;;;;;5032884;28;20041;-57
2023/05/07 06:23:10;;;;;;;41.07;33.27;;;12.20;99.90;;;;;;5042225;28;20473;-55
2023/05/07 06:25:36;;;;;;;43.83;33.30;;;12.20;99.90;;;;;;5037467;28;20307;-53
2023/05/07 06:28:01;;;;;;;43.90;33.27;;;12.20;99.90;;;;;;5011930;28;20371;-56
2023/05/07 06:30:27;;;;;;;39.23;31.80;;;12.20;99.90;;;;;;5032670;28;20283;-57
2023/05/07 06:32:52;;;;;;;42.30;33.35;;;12.20;99.90;;;;;;5032709;28;20061;-57
2023/05/07 06:35:18;;;;;;;43.37;33.37;;;12.20;99.90;;;;;;5032518;28;20302;-57
2023/05/07 06:37:44;;;;;;;45.70;33.40;;;12.20;99.90;;;;;;5032155;28;20849;-57
2023/05/07 06:40:10;;;;;;;39.67;32.70;;;12.20;99.90;;;;;;5029916;28;20072;-58
2023/05/07 06:42:37;;;;;;;41.97;32.42;;;12.20;99.90;;;;;;5038951;28;20387;-59
2023/05/07 06:45:03;;;;;;;43.58;32.72;;;12.30;99.90;;;;;;5031938;28;20041;-57
2023/05/07 06:47:29;;;;;;;40.33;31.42;;;12.30;99.90;;;;;;5031233;28;20403;-56
2023/05/07 06:49:54;;;;;;;40.35;29.73;;;12.30;99.90;;;;;;5032548;28;20037;-57
2023/05/07 06:52:20;;;;;;;43.45;31.55;;;12.40;99.90;;;;;;5033210;28;20402;-56
2023/05/07 06:54:46;;;;;;;47.80;33.33;;;12.40;99.90;;;;;;5031389;28;20402;-57
2023/05/07 06:57:11;;;;;;;42.80;33.50;;;12.50;99.90;;;;;;5030787;28;20341;-57
2023/05/07 06:59:37;;;;;;;46.63;33.08;;;12.50;99.90;;;;;;5031576;28;20779;-55
2023/05/07 07:02:02;;;;;;;39.88;31.85;;;12.50;99.90;;;;;;5032454;28;20052;-58
2023/05/07 07:04:28;;;;;;;46.80;33.42;;;12.50;99.90;;;;;;5047648;28;20044;-57
2023/05/07 07:06:54;;;;;;;58.70;33.40;;;12.60;99.90;;;;;;5040451;28;20045;-57
2023/05/07 07:09:19;;;;;;;43.17;32.63;;;12.60;99.90;;;;;;5044420;28;20033;-57
2023/05/07 07:11:45;;;;;;;43.33;32.43;;;12.60;99.90;;;;;;5038110;28;20750;-58
2023/05/07 07:14:11;;;;;;;41.97;31.00;;;12.60;99.90;;;;;;5032632;28;20063;-57
2023/05/07 07:16:36;;;;;;;46.47;30.50;;;12.60;99.90;;;;;;5031527;28;20056;-58
2023/05/07 07:19:02;;;;;;;44.60;32.88;;;12.70;99.90;;;;;;5039730;28;20047;-58
2023/05/07 07:21:27;;;;;;;47.30;32.90;;;12.70;99.90;;;;;;5035647;28;20421;-57
2023/05/07 07:23:53;;;;;;;39.73;31.10;;;12.70;99.90;;;;;;5039477;28;20500;-58
2023/05/07 07:26:19;;;;;;;42.60;31.20;;;12.70;99.90;;;;;;5037296;28;20379;-58
2023/05/07 07:28:47;;;;;;;41.58;31.50;;;12.70;99.90;;;;;;5035853;28;20033;-54
2023/05/07 07:31:13;;;;;;;49.80;32.63;;;12.70;99.90;;;;;;5030882;28;20095;-57
2023/05/07 07:33:39;;;;;;;45.40;34.72;;;12.80;99.90;;;;;;5032534;28;20034;-57
2023/05/07 07:36:06;;;;;;;48.47;34.13;;;12.80;99.90;;;;;;5030809;28;20124;-57
2023/05/07 07:38:31;;;;;;;43.13;30.70;;;13.00;99.90;;;;;;5032459;28;20069;-57
2023/05/07 07:40:57;;;;;;;43.90;32.97;;;13.00;99.90;;;;;;5037004;28;20084;-54
2023/05/07 07:43:23;;;;;;;42.22;31.38;;;13.10;99.90;;;;;;5031062;28;20574;-56
2023/05/07 07:45:48;;;;;;;46.50;32.43;;;13.20;99.90;;;;;;5031237;28;20038;-58
2023/05/07 07:48:14;;;;;;;46.50;32.13;;;13.30;99.90;;;;;;5029553;28;20789;-58
2023/05/07 07:50:39;;;;;;;41.80;29.98;;;13.30;99.90;;;;;;5047579;28;20280;-57
2023/05/07 07:53:05;;;;;;;42.65;31.60;;;13.30;99.90;;;;;;5030607;28;20049;-57
2023/05/07 07:55:32;;;;;;;39.08;30.05;;;13.30;99.90;;;;;;5031349;28;20595;-58
2023/05/07 07:57:57;;;;;;;49.60;34.97;;;13.40;99.90;;;;;;5018188;28;20182;-58
2023/05/07 08:00:23;;;;;;;41.95;34.03;;;13.50;99.90;;;;;;5046083;28;20033;-57
2023/05/07 08:02:48;;;;;;;48.97;33.70;;;13.50;99.90;;;;;;5037121;28;20045;-57
2023/05/07 08:05:15;;;;;;;45.30;35.83;;;13.60;99.90;;;;;;5031915;28;20080;-57
2023/05/07 08:07:40;;;;;;;;;;;13.70;99.90;;;;;;5032030;28;20049;-56
2023/05/07 08:10:06;;;;;;;39.72;32.40;;;13.80;99.90;;;;;;5038257;28;19991;-57
2023/05/07 08:12:32;;;;;;;38.83;31.83;;;13.80;99.90;;;;;;5029326;28;20042;-56
2023/05/07 08:14:57;;;;;;;44.03;33.60;;;13.80;99.90;;;;;;5039496;28;20071;-55
2023/05/07 08:17:24;;;;;;;44.35;33.00;;;13.90;99.90;;;;;;5035688;28;20136;-59
2023/05/07 08:19:49;;;;;;;41.17;31.13;;;14.00;99.90;;;;;;5031694;28;20033;-54
2023/05/07 08:22:15;;;;;;;39.15;31.60;;;14.10;99.90;;;;;;5030266;28;20037;-55
2023/05/07 08:24:41;;;;;;;42.55;30.67;;;14.30;99.90;;;;;;5031883;28;20041;-56
2023/05/07 08:27:06;;;;;;;43.08;31.70;;;14.50;99.90;;;;;;5030094;28;20044;-55
2023/05/07 08:29:32;;;;;;;36.65;29.25;;;14.60;99.90;;;;;;5031494;28;20071;-55
2023/05/07 08:31:57;;;;;;;40.08;33.22;;;14.80;99.90;;;;;;5030631;28;20063;-55
2023/05/07 08:34:23;;;;;;;38.15;30.45;;;14.90;99.90;;;;;;5032550;28;20060;-52
2023/05/07 08:36:49;;;;;;;39.10;30.50;;;15.00;99.90;;;;;;5042397;28;20045;-54
2023/05/07 08:39:17;;;;;;;39.80;30.38;;;15.20;99.90;;;;;;5028184;28;20052;-52
2023/05/07 08:41:48;;;;;;;38.55;29.55;;;15.20;99.90;;;;;;5029135;28;20549;-56
2023/05/07 08:44:14;;;;;;;38.70;30.88;;;15.20;99.90;;;;;;5030035;28;20399;-52
2023/05/07 08:46:42;;;;;;;39.25;29.95;;;15.20;99.90;;;;;;5029666;28;20402;-57
2023/05/07 08:49:08;;;;;;;36.28;30.65;;;15.20;99.90;;;;;;5031149;28;20095;-53
2023/05/07 08:51:35;;;;;;;51.58;30.63;;;15.20;99.90;;;;;;5030195;28;20069;-56
2023/05/07 08:54:01;;;;;;;47.42;29.85;;;15.30;99.90;;;;;;5030442;28;20037;-55
2023/05/07 08:56:27;;;;;;;33.15;26.92;;;15.50;99.90;;;;;;5029538;28;20439;-54
2023/05/07 08:58:56;;;;;;;32.88;28.80;;;15.70;99.90;;;;;;5042067;28;20043;-53
2023/05/07 09:01:22;;;;;;;33.65;27.60;;;15.80;99.90;;;;;;5034201;28;20045;-52
2023/05/07 09:03:50;;;;;;;36.80;28.35;;;15.80;99.90;;;;;;5028146;28;20176;-55
2023/05/07 09:06:15;;;;;;;36.10;26.73;;;15.90;99.90;;;;;;5029322;28;20038;-53
2023/05/07 09:08:44;;;;;;;36.97;26.90;;;16.00;99.90;;;;;;5028652;28;20129;-55
2023/05/07 09:11:12;;;;;;;30.73;26.08;;;16.20;99.90;;;;;;5018238;28;20046;-53
2023/05/07 09:13:38;;;;;;;36.42;27.75;;;16.40;99.90;;;;;;5026169;28;20038;-54
2023/05/07 09:16:11;;;;;;;35.22;27.23;;;16.60;99.90;;;;;;5036944;28;20053;-56
2023/05/07 09:18:44;;;;;;;34.05;27.98;;;16.80;99.90;;;;;;5031542;28;20561;-56
2023/05/07 09:21:19;;;;;;;32.95;26.85;;;16.80;99.90;;;;;;5040897;28;20125;-54
2023/05/07 09:23:45;;;;;;;31.58;26.08;;;16.90;99.90;;;;;;5030435;28;20137;-53
2023/05/07 09:26:13;;;;;;;31.58;27.10;;;17.00;99.90;;;;;;5029396;28;20132;-53
2023/05/07 09:28:43;;;;;;;29.45;24.88;;;17.10;99.90;;;;;;5027866;28;20037;-57
2023/05/07 09:31:10;;;;;;;29.98;25.80;;;17.20;99.90;;;;;;5029171;28;20426;-57
2023/05/07 09:36:11;;;;;;;29.27;24.23;;;17.30;99.90;;;;;;1167645;22;20298;-61
2023/05/07 09:38:37;;;;;;;26.83;23.95;;;17.40;99.90;;;;;;5060160;28;20055;-61
2023/05/07 09:41:07;;;;;;;28.30;23.13;;;17.50;99.90;;;;;;5062284;28;20048;-61
2023/05/07 09:43:38;;;;;;;29.02;25.15;;;17.60;99.90;;;;;;5059144;28;20136;-63
2023/05/07 09:46:13;;;;;;;28.23;23.75;;;17.50;99.90;;;;;;5047430;28;20036;-62
2023/05/07 09:48:41;;;;;;;27.70;23.60;;;17.50;99.90;;;;;;5050701;28;20045;-63
2023/05/07 09:51:28;;;;;;;27.02;23.58;;;17.50;99.90;;;;;;5053602;28;20033;-61
2023/05/07 09:53:56;;;;;;;26.17;23.38;;;17.60;99.90;;;;;;5054753;28;20047;-63
2023/05/07 09:56:23;;;;;;;26.65;22.98;;;17.70;99.90;;;;;;5054523;28;20095;-63
2023/05/07 09:58:51;;;;;;;27.67;23.27;;;17.80;99.90;;;;;;5045230;28;20042;-63
2023/05/07 10:01:19;;;;;;;27.58;21.88;;;17.80;99.90;;;;;;5042585;28;20110;-63
2023/05/07 10:03:45;;;;;;;23.42;20.75;;;18.00;99.90;;;;;;5053057;28;20045;-63
2023/05/07 10:06:12;;;;;;;24.60;21.98;;;18.10;99.90;;;;;;5054238;28;20036;-62
2023/05/07 10:08:39;;;;;;;24.83;22.15;;;18.20;99.90;;;;;;5054533;28;20048;-63
2023/05/07 10:11:05;;;;;;;;;;;18.30;99.90;;;;;;5054798;28;20033;-63
2023/05/07 10:13:35;;;;;;;25.90;23.13;;;18.40;99.90;;;;;;5033345;28;20012;-63
2023/05/07 10:16:03;;;;;;;24.27;21.77;;;18.50;99.90;;;;;;5053090;28;20045;-64
2023/05/07 10:18:33;;;;;;;25.52;22.48;;;18.60;99.90;;;;;;5050527;28;20402;-63
2023/05/07 10:21:23;;;;;;;25.65;22.63;;;18.70;99.90;;;;;;5050299;28;20047;-63
2023/05/07 10:23:56;;;;;;;22.85;20.45;;;18.70;99.90;;;;;;5052246;28;20087;-64
2023/05/07 10:26:25;;;;;;;23.30;20.75;;;18.70;99.90;;;;;;5052580;28;20392;-63
2023/05/07 10:28:58;;;;;;;22.95;20.55;;;18.80;99.90;;;;;;5053054;28;20120;-64
2023/05/07 10:31:34;;;;;;;25.15;21.05;;;18.80;99.90;;;;;;5053366;28;20032;-62
2023/05/07 10:34:02;;;;;;;23.27;20.80;;;18.90;99.90;;;;;;5052878;28;20041;-62
2023/05/07 10:36:28;;;;;;;24.02;21.45;;;19.00;99.90;;;;;;5052635;28;20094;-64
2023/05/07 10:38:55;;;;;;;26.90;21.35;;;19.10;99.90;;;;;;5052677;28;20463;-63
2023/05/07 10:41:21;;;;;;;25.25;22.50;;;19.10;99.90;;;;;;5051959;28;20508;-63
2023/05/07 10:43:47;;;;;;;26.30;22.13;;;19.00;99.90;;;;;;5051839;28;20056;-64
2023/05/07 10:46:16;;;;;;;23.50;20.98;;;18.90;99.90;;;;;;5052605;28;20037;-62
2023/05/07 10:49:07;;;;;;;22.25;19.85;;;18.80;99.90;;;;;;5038534;28;20057;-64
2023/05/07 10:51:33;;;;;;;27.77;22.10;;;18.50;99.90;;;;;;5027741;28;20041;-63
2023/05/07 10:54:11;;;;;;;29.35;22.30;;;18.50;99.90;;;;;;5050977;28;20041;-64
2023/05/07 10:56:42;;;;;;;24.20;21.60;;;18.60;99.90;;;;;;5053298;28;20049;-63
2023/05/07 10:59:20;;;;;;;22.85;19.77;;;18.70;99.90;;;;;;5052608;28;20045;-63
2023/05/07 11:01:57;;;;;;;22.88;19.73;;;18.70;99.90;;;;;;5049244;28;20553;-62
2023/05/07 11:04:26;;;;;;;22.67;20.20;;;18.90;99.90;;;;;;5036125;28;20041;-63
2023/05/07 11:07:06;;;;;;;24.58;21.98;;;18.90;99.90;;;;;;5046374;28;20116;-64
2023/05/07 11:09:51;;;;;;;28.95;21.60;;;19.00;99.90;;;;;;5051753;28;20053;-63
2023/05/07 11:12:17;;;;;;;23.63;20.98;;;19.10;99.90;;;;;;5051522;28;20547;-63
2023/05/07 11:14:43;;;;;;;23.15;20.42;;;19.10;99.90;;;;;;5052462;28;20494;-63
2023/05/07 11:17:10;;;;;;;21.88;19.58;;;19.10;99.90;;;;;;5033949;28;20124;-63
2023/05/07 11:19:55;;;;;;;22.15;19.92;;;19.30;99.90;;;;;;5051764;28;20493;-63
2023/05/07 11:22:33;;;;;;;21.80;19.48;;;19.30;99.90;;;;;;5050513;28;20044;-63
2023/05/07 11:25:03;;;;;;;22.40;20.02;;;19.30;99.90;;;;;;5032860;28;20079;-63
2023/05/07 11:27:32;;;;;;;24.02;20.88;;;19.30;99.90;;;;;;5038544;28;20029;-63
2023/05/07 11:29:58;;;;;;;41.65;20.85;;;19.30;99.90;;;;;;5052144;28;20041;-64
2023/05/07 11:32:30;;;;;;;23.48;21.08;;;19.40;99.90;;;;;;5034403;28;20033;-63
2023/05/07 11:34:59;;;;;;;22.10;18.85;;;19.40;99.90;;;;;;5050393;28;20112;-63
2023/05/07 11:37:27;;;;;;;22.42;19.20;;;19.50;99.90;;;;;;5050979;28;20048;-63
2023/05/07 11:40:13;;;;;;;27.40;19.27;;;19.60;99.90;;;;;;5047973;28;20492;-63
2023/05/07 11:42:41;;;;;;;22.05;18.58;;;19.90;99.90;;;;;;5051623;28;20040;-64
2023/05/07 11:45:07;;;;;;;21.73;19.58;;;19.90;99.90;;;;;;5051414;28;20519;-63
2023/05/07 11:47:34;;;;;;;26.73;19.38;;;19.90;99.90;;;;;;5050724;28;20033;-63
2023/05/07 11:50:05;;;;;;;20.23;18.05;;;19.70;99.90;;;;;;5049080;28;20041;-63
2023/05/07 11:52:31;;;;;;;19.48;17.30;;;19.70;99.90;;;;;;5051129;28;20033;-62
2023/05/07 11:54:59;;;;;;;21.05;18.85;;;19.70;99.90;;;;;;5049818;28;20511;-63
2023/05/07 11:57:26;;;;;;;21.13;18.92;;;19.70;99.90;;;;;;5050229;28;20083;-63
2023/05/07 11:59:56;;;;;;;22.13;18.38;;;19.50;99.90;;;;;;5049481;28;20044;-62
2023/05/07 12:02:22;;;;;;;21.55;18.42;;;19.40;99.90;;;;;;5049753;28;20056;-63
2023/05/07 12:04:47;;;;;;;19.85;17.92;;;19.40;99.90;;;;;;5051252;28;20037;-61
2023/05/07 12:07:15;;;;;;;25.35;19.85;;;19.40;99.90;;;;;;5049976;28;20107;-61
2023/05/07 12:09:44;;;;;;;19.15;17.25;;;19.50;99.90;;;;;;5039940;28;20052;-61
2023/05/07 12:12:10;;;;;;;24.92;18.80;;;19.60;99.90;;;;;;5031753;28;20041;-61
2023/05/07 12:14:43;;;;;;;23.10;19.65;;;19.80;99.90;;;;;;5040298;28;20095;-62
2023/05/07 12:17:09;;;;;;;22.00;18.67;;;19.80;99.90;;;;;;5049785;28;20124;-61
2023/05/07 12:19:37;;;;;;;21.55;19.30;;;19.80;99.90;;;;;;5050655;28;20072;-60
2023/05/07 12:22:03;;;;;;;20.20;18.10;;;19.80;99.90;;;;;;5051268;28;20045;-59
2023/05/07 12:24:41;;;;;;;20.08;18.17;;;19.80;99.90;;;;;;5045022;28;20112;-60
2023/05/07 12:27:06;;;;;;;22.48;17.25;;;19.90;99.90;;;;;;5046085;28;20040;-60
2023/05/07 12:29:32;;;;;;;18.65;16.85;;;20.10;99.90;;;;;;5050425;28;20037;-59